createdAt,value
2023-03-24T00:01:31.714Z,60.05
2023-03-24T00:04:01.272Z,61.58
2023-03-24T00:06:34.727Z,69.02
2023-03-24T00:09:04.736Z,67.96
2023-03-24T00:11:34.710Z,62.13
2023-03-24T00:14:05.008Z,56.88
2023-03-24T00:16:35.105Z,55.29
2023-03-24T00:19:04.717Z,56.73
2023-03-24T00:21:33.710Z,58.49
2023-03-24T00:24:03.452Z,60.36
2023-03-24T00:26:32.500Z,61.29
2023-03-24T00:29:02.300Z,68.37
2023-03-24T00:31:31.680Z,66.56
2023-03-24T00:34:03.090Z,60.32
2023-03-24T00:36:32.099Z,54.77
2023-03-24T00:39:01.416Z,55.25
2023-03-24T00:41:31.851Z,57.28
2023-03-24T00:44:03.761Z,59.16
2023-03-24T00:46:33.863Z,60.55
2023-03-24T00:49:06.961Z,61.77
2023-03-24T00:51:38.685Z,69.48
2023-03-24T00:54:09.735Z,67.50
2023-03-24T00:56:40.929Z,61.09
2023-03-24T00:59:11.382Z,55.85
2023-03-24T01:01:41.475Z,55.74
2023-03-24T01:04:10.786Z,57.67
2023-03-24T01:06:41.291Z,59.89
2023-03-24T01:09:10.855Z,61.28
2023-03-24T01:11:41.654Z,68.82
2023-03-24T01:14:12.158Z,66.93
2023-03-24T01:16:42.402Z,61.14
2023-03-24T01:19:11.428Z,56.15
2023-03-24T01:21:42.530Z,55.51
2023-03-24T01:24:13.670Z,57.79
2023-03-24T01:26:42.631Z,59.90
2023-03-24T01:29:11.524Z,61.69
2023-03-24T01:31:40.454Z,69.18
2023-03-24T01:34:09.429Z,68.06
2023-03-24T01:36:38.333Z,62.53
2023-03-24T01:39:07.279Z,59.80
2023-03-24T01:41:41.211Z,55.94
2023-03-24T01:44:26.390Z,57.36
2023-03-24T01:46:56.563Z,59.50
2023-03-24T01:49:47.728Z,61.46
2023-03-24T01:52:22.482Z,70.48
2023-03-24T01:54:56.311Z,67.25
2023-03-24T01:57:29.505Z,62.02
2023-03-24T02:00:04.803Z,57.16
2023-03-24T02:02:36.193Z,55.66
2023-03-24T02:05:09.179Z,57.83
2023-03-24T02:07:44.590Z,59.24
2023-03-24T02:10:16.653Z,60.87
2023-03-24T02:12:46.726Z,68.34
2023-03-24T02:15:18.256Z,67.68
2023-03-24T02:18:06.229Z,61.90
2023-03-24T02:21:12.854Z,56.69
2023-03-24T02:23:55.750Z,55.97
2023-03-24T02:26:42.856Z,58.06
2023-03-24T02:29:12.059Z,59.23
2023-03-24T02:31:53.265Z,61.25
2023-03-24T02:34:44.208Z,69.40
2023-03-24T02:37:22.252Z,67.58
2023-03-24T02:39:56.898Z,61.59
2023-03-24T02:42:41.755Z,57.25
2023-03-24T02:45:38.100Z,56.06
2023-03-24T02:48:13.258Z,57.73
2023-03-24T02:50:47.959Z,59.68
2023-03-24T02:53:38.952Z,67.87
2023-03-24T02:56:13.206Z,66.47
2023-03-24T02:59:02.839Z,61.27
2023-03-24T03:01:43.482Z,56.03
2023-03-24T03:04:18.218Z,56.13
2023-03-24T03:06:52.610Z,58.60
2023-03-24T03:09:23.186Z,59.83
2023-03-24T03:11:56.174Z,68.07
2023-03-24T03:14:48.320Z,68.29
2023-03-24T03:17:25.496Z,63.83
2023-03-24T03:19:58.339Z,59.67
2023-03-24T03:22:35.311Z,55.26
2023-03-24T03:25:05.311Z,55.63
2023-03-24T03:27:39.842Z,57.62
2023-03-24T03:30:21.172Z,59.05
2023-03-24T03:32:56.613Z,61.47
2023-03-24T03:35:58.229Z,70.37
2023-03-24T03:39:08.659Z,66.80
2023-03-24T03:41:38.982Z,60.49
2023-03-24T03:44:08.544Z,55.64
2023-03-24T03:46:38.192Z,55.93
2023-03-24T03:49:08.175Z,58.18
2023-03-24T03:51:37.358Z,60.07
2023-03-24T03:54:10.595Z,61.31
2023-03-24T03:56:41.054Z,68.83
2023-03-24T03:59:23.039Z,66.45
2023-03-24T04:01:52.259Z,60.29
2023-03-24T04:04:50.682Z,54.94
2023-03-24T04:08:11.401Z,56.19
2023-03-24T04:10:49.930Z,58.77
2023-03-24T04:13:39.924Z,61.29
2023-03-24T04:17:03.300Z,71.28
2023-03-24T04:20:20.178Z,66.07
2023-03-24T04:23:05.260Z,60.04
2023-03-24T04:25:41.127Z,55.29
2023-03-24T04:28:34.915Z,56.10
2023-03-24T04:31:16.027Z,59.33
2023-03-24T04:33:58.523Z,61.35
2023-03-24T04:36:43.889Z,70.08
2023-03-24T04:39:17.790Z,66.31
2023-03-24T04:41:47.637Z,61.24
2023-03-24T04:44:17.798Z,57.00
2023-03-24T04:46:47.058Z,55.32
2023-03-24T04:49:16.167Z,57.15
2023-03-24T04:51:46.001Z,59.25
2023-03-24T04:54:14.973Z,62.16
2023-03-24T04:56:48.033Z,69.93
2023-03-24T04:59:17.785Z,68.00
2023-03-24T05:01:50.281Z,62.55
2023-03-24T05:04:22.079Z,59.77
2023-03-24T05:06:51.044Z,55.63
2023-03-24T05:09:21.917Z,56.64
2023-03-24T05:11:52.000Z,58.53
2023-03-24T05:14:20.942Z,60.49
2023-03-24T05:16:50.080Z,67.25
2023-03-24T05:19:19.023Z,66.14
2023-03-24T05:21:47.974Z,60.98
2023-03-24T05:24:16.926Z,56.42
2023-03-24T05:26:46.007Z,56.34
2023-03-24T05:29:14.854Z,57.63
2023-03-24T05:31:45.226Z,60.25
2023-03-24T05:34:14.147Z,60.36
2023-03-24T05:36:43.072Z,69.13
2023-03-24T05:39:11.932Z,68.91
2023-03-24T05:41:40.874Z,63.18
2023-03-24T05:44:09.762Z,58.85
2023-03-24T05:46:38.709Z,55.44
2023-03-24T05:49:07.672Z,57.23
2023-03-24T05:51:37.332Z,59.35
2023-03-24T05:54:07.524Z,60.67
2023-03-24T05:56:36.405Z,69.29
2023-03-24T05:59:05.352Z,67.20
2023-03-24T06:01:34.333Z,61.70
2023-03-24T06:04:03.263Z,57.09
2023-03-24T06:06:32.267Z,56.28
2023-03-24T06:09:02.585Z,58.15
2023-03-24T06:11:31.550Z,59.92
2023-03-24T06:14:11.959Z,67.75
2023-03-24T06:17:01.951Z,66.61
2023-03-24T06:19:35.314Z,62.43
2023-03-24T06:22:26.532Z,57.14
2023-03-24T06:25:04.983Z,56.55
2023-03-24T06:27:33.930Z,58.21
2023-03-24T06:30:03.406Z,64.50
2023-03-24T06:32:32.312Z,64.90
2023-03-24T06:35:01.263Z,61.43
2023-03-24T06:37:30.671Z,59.02
2023-03-24T06:40:00.419Z,59.48
2023-03-24T06:42:29.400Z,62.48
2023-03-24T06:44:58.373Z,64.51
2023-03-24T06:47:27.309Z,61.32
2023-03-24T06:49:56.244Z,59.22
2023-03-24T06:52:25.247Z,56.93
2023-03-24T06:54:54.139Z,59.05
2023-03-24T06:57:23.070Z,63.58
2023-03-24T06:59:52.488Z,64.58
2023-03-24T07:02:21.703Z,61.84
2023-03-24T07:04:54.134Z,60.48
2023-03-24T07:09:56.665Z,58.13
2023-03-24T07:12:25.989Z,59.74
2023-03-24T07:14:55.801Z,64.51
2023-03-24T07:17:25.355Z,65.65
2023-03-24T07:19:54.308Z,62.49
2023-03-24T07:22:23.233Z,59.11
2023-03-24T07:24:54.060Z,58.40
2023-03-24T07:27:23.280Z,60.02
2023-03-24T07:29:52.129Z,64.55
2023-03-24T07:32:21.132Z,64.73
2023-03-24T07:34:50.109Z,61.79
2023-03-24T07:37:18.974Z,60.12
2023-03-24T07:39:48.228Z,58.18
2023-03-24T07:42:17.135Z,57.96
2023-03-24T07:44:46.617Z,61.74
2023-03-24T07:47:15.615Z,64.54
2023-03-24T07:49:44.491Z,62.33
2023-03-24T07:52:13.414Z,60.16
2023-03-24T07:54:42.381Z,57.62
2023-03-24T07:57:11.492Z,58.98
2023-03-24T07:59:40.452Z,61.41
2023-03-24T08:02:18.365Z,64.78
2023-03-24T08:04:53.722Z,61.94
2023-03-24T08:07:22.720Z,60.49
2023-03-24T08:09:52.018Z,58.13
2023-03-24T08:12:21.290Z,59.52
2023-03-24T08:14:50.187Z,61.74
2023-03-24T08:17:19.072Z,64.54
2023-03-24T08:19:59.974Z,61.94
2023-03-24T08:22:29.874Z,60.08
2023-03-24T08:24:58.798Z,57.45
2023-03-24T08:27:27.802Z,58.97
2023-03-24T08:29:56.721Z,62.58
2023-03-24T08:32:25.792Z,63.18
2023-03-24T08:34:54.705Z,60.32
2023-03-24T08:37:23.646Z,57.51
2023-03-24T08:39:52.686Z,58.05
2023-03-24T08:42:21.801Z,61.44
2023-03-24T08:44:50.896Z,63.78
2023-03-24T08:47:19.831Z,62.04
2023-03-24T08:49:48.791Z,58.78
2023-03-24T08:52:18.197Z,58.97
2023-03-24T08:54:47.093Z,60.22
2023-03-24T08:57:17.409Z,61.17
2023-03-24T08:59:47.351Z,64.28
2023-03-24T09:02:17.978Z,61.61
2023-03-24T09:04:46.958Z,58.42
2023-03-24T09:07:16.187Z,58.77
2023-03-24T09:09:45.123Z,60.37
2023-03-24T09:12:14.022Z,63.49
2023-03-24T09:14:48.267Z,61.25
2023-03-24T09:17:17.886Z,58.05
2023-03-24T09:19:47.416Z,58.90
2023-03-24T09:22:16.437Z,60.65
2023-03-24T09:24:45.390Z,62.40
2023-03-24T09:27:14.278Z,63.42
2023-03-24T09:29:44.073Z,58.93
2023-03-24T09:32:13.044Z,57.18
2023-03-24T09:34:41.923Z,58.89
2023-03-24T09:37:10.903Z,60.64
2023-03-24T09:39:39.809Z,61.83
2023-03-24T09:42:20.287Z,63.47
2023-03-24T09:44:55.820Z,58.42
2023-03-24T09:47:40.118Z,57.19
2023-03-24T09:50:28.011Z,57.56
2023-03-24T09:53:02.845Z,60.98
2023-03-24T09:55:31.748Z,62.05
2023-03-24T09:58:06.308Z,63.08
2023-03-24T10:00:36.738Z,62.14
2023-03-24T10:03:23.241Z,57.30
2023-03-24T10:06:21.938Z,57.19
2023-03-24T10:08:55.625Z,59.32
2023-03-24T10:11:33.312Z,60.70
2023-03-24T10:14:05.278Z,61.52
2023-03-24T10:16:49.683Z,62.28
2023-03-24T10:19:43.382Z,62.31
2023-03-24T10:22:25.991Z,58.17
2023-03-24T10:24:54.825Z,58.03
2023-03-24T10:27:46.452Z,59.84
2023-03-24T10:30:22.654Z,61.25
2023-03-24T10:32:51.639Z,62.34
2023-03-24T10:35:27.732Z,62.24
2023-03-24T10:37:59.463Z,58.20
2023-03-24T10:40:33.261Z,57.86
2023-03-24T10:43:06.662Z,58.90
2023-03-24T10:45:41.090Z,60.54
2023-03-24T10:48:13.470Z,61.65
2023-03-24T10:50:45.317Z,62.97
2023-03-24T10:53:19.869Z,62.01
2023-03-24T10:55:49.082Z,57.95
2023-03-24T10:58:29.816Z,57.17
2023-03-24T11:01:00.873Z,58.78
2023-03-24T11:03:34.696Z,60.08
2023-03-24T11:06:05.245Z,61.20
2023-03-24T11:08:42.081Z,62.04
2023-03-24T11:11:31.436Z,62.03
2023-03-24T11:14:03.178Z,60.02
2023-03-24T11:16:37.989Z,56.25
2023-03-24T11:19:20.330Z,56.91
2023-03-24T11:21:57.915Z,59.39
2023-03-24T11:24:27.939Z,60.69
2023-03-24T11:27:02.224Z,61.68
2023-03-24T11:29:34.261Z,62.84
2023-03-24T11:32:11.412Z,61.97
2023-03-24T11:34:46.908Z,56.77
2023-03-24T11:37:22.341Z,56.54
2023-03-24T11:40:13.364Z,57.64
2023-03-24T11:42:52.035Z,59.35
2023-03-24T11:45:39.365Z,60.45
2023-03-24T11:48:24.787Z,61.03
2023-03-24T11:50:56.995Z,61.77
2023-03-24T11:53:34.254Z,61.80
2023-03-24T11:56:28.603Z,62.28
2023-03-24T11:59:12.895Z,63.59
2023-03-24T12:01:52.630Z,57.37
2023-03-24T12:04:32.595Z,57.06
2023-03-24T12:07:25.243Z,58.07
2023-03-24T12:10:18.986Z,59.56
2023-03-24T12:13:03.314Z,59.92
2023-03-24T12:16:10.272Z,60.19
2023-03-24T12:19:06.231Z,59.88
2023-03-24T12:21:45.553Z,59.79
2023-03-24T12:24:23.404Z,59.70
2023-03-24T12:26:59.348Z,59.60
2023-03-24T12:29:50.151Z,59.47
2023-03-24T12:32:36.642Z,59.19
2023-03-24T12:35:26.981Z,58.75
2023-03-24T12:38:17.637Z,57.62
2023-03-24T12:40:55.420Z,57.50
2023-03-24T12:43:33.151Z,57.57
2023-03-24T12:46:22.213Z,57.75
2023-03-24T12:49:09.830Z,57.38
2023-03-24T12:51:47.631Z,57.46
2023-03-24T12:54:36.897Z,56.75
2023-03-24T12:57:12.286Z,57.33
2023-03-24T12:59:49.024Z,57.41
2023-03-24T13:02:35.582Z,57.45
2023-03-24T13:05:16.859Z,57.65
2023-03-24T13:07:47.743Z,57.87
2023-03-24T13:10:26.560Z,57.78
2023-03-24T13:13:08.339Z,57.63
2023-03-24T13:15:43.462Z,57.22
2023-03-24T13:18:12.387Z,57.23
2023-03-24T13:20:46.252Z,56.81
2023-03-24T13:23:55.767Z,56.48
2023-03-24T13:26:24.980Z,56.35
2023-03-24T13:29:41.797Z,56.40
2023-03-24T13:32:20.447Z,56.10
2023-03-24T13:34:53.727Z,57.02
2023-03-24T13:37:26.692Z,57.34
2023-03-24T13:39:58.919Z,57.28
2023-03-24T13:42:33.085Z,57.25
2023-03-24T13:45:06.705Z,57.56
2023-03-24T13:47:50.542Z,57.65
2023-03-24T13:50:20.082Z,57.62
2023-03-24T13:52:50.514Z,57.61
2023-03-24T13:55:27.652Z,57.68
2023-03-24T13:58:22.121Z,57.89
2023-03-24T14:01:09.472Z,58.09
2023-03-24T14:04:01.460Z,57.96
2023-03-24T14:06:55.237Z,57.94
2023-03-24T14:09:27.433Z,58.12
2023-03-24T14:11:56.332Z,58.02
2023-03-24T14:14:27.665Z,58.12
2023-03-24T14:17:05.901Z,58.01
2023-03-24T14:19:45.474Z,57.86
2023-03-24T14:22:36.371Z,57.83
2023-03-24T14:25:14.356Z,57.81
2023-03-24T14:27:46.456Z,57.71
2023-03-24T14:30:38.078Z,57.76
2023-03-24T14:33:25.403Z,57.91
2023-03-24T14:36:06.892Z,58.14
2023-03-24T14:38:41.320Z,58.19
2023-03-24T14:41:26.693Z,58.32
2023-03-24T14:43:58.916Z,58.49
2023-03-24T14:46:55.826Z,58.58
2023-03-24T14:49:31.466Z,58.85
2023-03-24T14:52:10.775Z,59.12
2023-03-24T14:54:46.364Z,59.39
2023-03-24T14:57:28.881Z,59.46
2023-03-24T14:59:58.906Z,59.67
2023-03-24T15:02:48.108Z,59.80
2023-03-24T15:05:25.579Z,60.07
2023-03-24T15:08:12.943Z,60.11
2023-03-24T15:10:56.591Z,60.24
2023-03-24T15:13:45.520Z,60.25
2023-03-24T15:16:14.472Z,60.56
2023-03-24T15:19:02.009Z,60.95
2023-03-24T15:21:56.424Z,60.84
2023-03-24T15:24:34.139Z,61.04
2023-03-24T15:27:06.630Z,61.18
2023-03-24T15:29:38.677Z,62.11
2023-03-24T15:32:15.663Z,67.52
2023-03-24T15:34:51.686Z,68.81
2023-03-24T15:37:22.134Z,65.22
2023-03-24T15:39:59.184Z,62.38
2023-03-24T15:42:41.533Z,58.35
2023-03-24T15:45:20.667Z,57.94
2023-03-24T15:47:53.139Z,61.20
2023-03-24T15:50:54.640Z,65.06
2023-03-24T15:53:28.017Z,64.16
2023-03-24T15:56:18.258Z,60.60
2023-03-24T15:58:54.348Z,56.84
2023-03-24T16:01:27.654Z,56.35
2023-03-24T16:03:57.846Z,56.74
2023-03-24T16:06:35.330Z,59.81
2023-03-24T16:09:09.518Z,61.27
2023-03-24T16:11:38.409Z,66.48
2023-03-24T16:14:28.346Z,67.10
2023-03-24T16:17:00.042Z,61.17
2023-03-24T16:19:29.692Z,56.05
2023-03-24T16:21:58.645Z,55.24
2023-03-24T16:24:27.633Z,57.13
2023-03-24T16:26:56.924Z,58.28
2023-03-24T16:29:25.890Z,60.43
2023-03-24T16:31:57.195Z,64.69
2023-03-24T16:34:26.719Z,63.84
2023-03-24T16:36:56.676Z,57.66
2023-03-24T16:39:30.818Z,56.20
2023-03-24T16:42:00.167Z,57.89
2023-03-24T16:44:29.127Z,58.99
2023-03-24T16:46:58.165Z,59.95
2023-03-24T16:49:27.255Z,67.59
2023-03-24T16:51:56.770Z,66.45
2023-03-24T16:54:25.701Z,60.81
2023-03-24T16:56:54.643Z,56.12
2023-03-24T16:59:23.592Z,55.83
2023-03-24T17:01:53.003Z,57.21
2023-03-24T17:04:24.762Z,58.66
2023-03-24T17:06:54.665Z,60.39
2023-03-24T17:09:24.172Z,68.83
2023-03-24T17:11:56.363Z,66.97
2023-03-24T17:14:25.397Z,63.44
2023-03-24T17:16:54.394Z,59.73
2023-03-24T17:19:24.975Z,56.22
2023-03-24T17:22:03.231Z,56.37
2023-03-24T17:24:35.885Z,59.83
2023-03-24T17:27:21.421Z,59.80
2023-03-24T17:29:50.434Z,66.50
2023-03-24T17:32:21.147Z,65.76
2023-03-24T17:34:51.453Z,61.83
2023-03-24T17:37:20.431Z,56.46
2023-03-24T17:39:49.861Z,57.56
2023-03-24T17:42:18.722Z,58.84
2023-03-24T17:44:47.802Z,60.41
2023-03-24T17:47:16.811Z,68.69
2023-03-24T17:49:45.711Z,67.15
2023-03-24T17:52:14.570Z,62.57
2023-03-24T17:54:57.384Z,58.29
2023-03-24T18:00:50.631Z,59.16
2023-03-24T18:03:29.198Z,62.64
2023-03-24T18:06:19.592Z,68.69
2023-03-24T18:08:52.202Z,62.48
2023-03-24T18:11:26.318Z,56.81
2023-03-24T18:14:10.850Z,56.41
2023-03-24T18:16:52.179Z,58.21
2023-03-24T18:19:21.162Z,60.53
2023-03-24T18:21:50.086Z,67.49
2023-03-24T18:24:19.035Z,66.92
2023-03-24T18:26:50.243Z,61.61
2023-03-24T18:29:22.166Z,56.77
2023-03-24T18:31:51.494Z,56.36
2023-03-24T18:34:23.245Z,59.10
2023-03-24T18:36:52.940Z,61.45
2023-03-24T18:39:22.859Z,69.05
2023-03-24T18:41:53.645Z,65.88
2023-03-24T18:44:22.822Z,60.73
2023-03-24T18:46:51.817Z,56.46
2023-03-24T18:49:20.730Z,56.49
2023-03-24T18:51:50.015Z,58.24
2023-03-24T18:54:35.883Z,60.69
2023-03-24T18:57:04.921Z,68.13
2023-03-24T18:59:33.796Z,66.03
2023-03-24T19:02:02.899Z,61.33
2023-03-24T19:04:31.818Z,56.64
2023-03-24T19:07:00.709Z,55.94
2023-03-24T19:09:29.884Z,58.43
2023-03-24T19:11:58.748Z,60.56
2023-03-24T19:14:28.690Z,67.60
2023-03-24T19:16:59.840Z,68.13
2023-03-24T19:19:31.718Z,62.75
2023-03-24T19:22:00.993Z,59.26
2023-03-24T19:24:29.886Z,55.94
2023-03-24T19:26:58.771Z,57.66
2023-03-24T19:29:27.711Z,59.45
2023-03-24T19:31:56.653Z,60.83
2023-03-24T19:34:25.779Z,69.22
2023-03-24T19:36:56.548Z,68.72
2023-03-24T19:39:26.641Z,63.83
2023-03-24T19:41:55.722Z,61.12
2023-03-24T19:44:24.888Z,57.16
2023-03-24T19:46:53.823Z,56.90
2023-03-24T19:49:22.798Z,58.72
2023-03-24T19:51:51.720Z,60.92
2023-03-24T19:54:20.755Z,67.11
2023-03-24T19:56:49.679Z,67.04
2023-03-24T19:59:18.688Z,63.55
2023-03-24T20:01:47.670Z,61.30
2023-03-24T20:04:16.823Z,57.34
2023-03-24T20:06:46.001Z,56.86
2023-03-24T20:09:14.916Z,58.90
2023-03-24T20:11:44.124Z,62.41
2023-03-24T20:14:13.036Z,68.58
2023-03-24T20:16:41.980Z,65.81
2023-03-24T20:19:11.031Z,62.28
2023-03-24T20:21:39.935Z,58.43
2023-03-24T20:24:08.940Z,57.56
2023-03-24T20:26:37.867Z,59.54
2023-03-24T20:29:07.326Z,65.17
2023-03-24T20:31:43.063Z,66.89
2023-03-24T20:34:12.084Z,63.65
2023-03-24T20:36:41.838Z,60.53
2023-03-24T20:39:10.953Z,57.34
2023-03-24T20:41:39.843Z,56.51
2023-03-24T20:44:08.778Z,58.57
2023-03-24T20:46:37.700Z,65.45
2023-03-24T20:49:07.876Z,66.77
2023-03-24T20:51:36.852Z,63.44
2023-03-24T20:54:07.919Z,61.24
2023-03-24T20:56:37.434Z,56.75
2023-03-24T20:59:07.131Z,57.18
2023-03-24T21:01:36.788Z,58.92
2023-03-24T21:04:09.227Z,61.06
2023-03-24T21:06:38.414Z,69.06
2023-03-24T21:09:07.607Z,67.83
2023-03-24T21:11:36.932Z,63.41
2023-03-24T21:14:06.124Z,60.30
2023-03-24T21:16:37.521Z,56.73
2023-03-24T21:19:07.217Z,56.52
2023-03-24T21:21:38.338Z,59.36
2023-03-24T21:24:07.535Z,60.83
2023-03-24T21:26:36.614Z,67.48
2023-03-24T21:29:08.121Z,68.44
2023-03-24T21:31:37.176Z,63.51
2023-03-24T21:34:06.068Z,62.15
2023-03-24T21:36:38.656Z,58.86
2023-03-24T21:39:09.322Z,56.42
2023-03-24T21:41:39.059Z,57.89
2023-03-24T21:44:09.563Z,59.83
2023-03-24T21:46:38.645Z,67.54
2023-03-24T21:49:11.095Z,68.10
2023-03-24T21:51:42.916Z,64.13
2023-03-24T21:54:14.969Z,60.23
2023-03-24T21:56:44.105Z,56.17
2023-03-24T21:59:13.076Z,56.36
2023-03-24T22:01:42.046Z,57.43
2023-03-24T22:04:11.056Z,59.62
2023-03-24T22:06:40.035Z,67.58
2023-03-24T22:09:10.537Z,67.18
2023-03-24T22:11:43.010Z,61.78
2023-03-24T22:14:13.057Z,58.19
2023-03-24T22:16:42.307Z,56.15
2023-03-24T22:19:11.275Z,57.02
2023-03-24T22:21:40.178Z,59.76
2023-03-24T22:24:09.438Z,66.04
2023-03-24T22:26:38.342Z,67.38
2023-03-24T22:29:07.286Z,62.07
2023-03-24T22:31:36.158Z,60.27
2023-03-24T22:34:04.977Z,56.87
2023-03-24T22:36:33.912Z,56.80
2023-03-24T22:39:03.605Z,59.24
2023-03-24T22:41:32.521Z,61.30
2023-03-24T22:44:01.353Z,69.27
2023-03-24T22:46:30.813Z,67.45
2023-03-24T22:48:59.812Z,62.75
2023-03-24T22:51:30.496Z,60.32
2023-03-24T22:53:59.566Z,56.77
2023-03-24T22:56:28.510Z,56.86
2023-03-24T22:58:57.393Z,59.22
2023-03-24T23:01:26.486Z,61.23
2023-03-24T23:03:55.453Z,68.49
2023-03-24T23:06:25.199Z,69.49
2023-03-24T23:08:54.789Z,63.20
2023-03-24T23:11:23.638Z,59.07
2023-03-24T23:13:52.895Z,56.06
2023-03-24T23:16:21.801Z,58.08
2023-03-24T23:18:51.829Z,60.04
2023-03-24T23:21:20.703Z,68.40
2023-03-24T23:23:49.678Z,65.53
2023-03-24T23:26:26.135Z,59.90
2023-03-24T23:28:56.909Z,55.71
2023-03-24T23:31:28.507Z,56.51
2023-03-24T23:33:58.170Z,59.46
2023-03-24T23:36:28.577Z,61.14
2023-03-24T23:38:57.661Z,70.34
2023-03-24T23:41:26.617Z,69.51
2023-03-24T23:43:56.023Z,63.75
2023-03-24T23:46:25.932Z,60.42
2023-03-24T23:48:55.030Z,56.85
2023-03-24T23:51:23.896Z,56.18
2023-03-24T23:53:52.764Z,57.88
2023-03-24T23:56:22.854Z,60.86
2023-03-24T23:58:52.354Z,68.53
